Terminal Aerodrome Forecast
Issued by NWS Boston, MA

Home | Current Version | Previous Version | Text Only | Print | Product List | Glossary On
Versions: 1 2 3 4 5 6 7 8 9 10 11 12 13 14 15 16 17 18 19 20 21 22
000
FTUS41 KBOX 250756 AAA
TAFBDL
TAF AMD
KBDL 250756Z 2508/2612 00000KT P6SM FEW200
     FM251800 23011KT P6SM VCSH SCT060
     FM252300 26009KT P6SM BKN060
     FM260200 28005KT P6SM SCT090=

USA.gov is the U.S. government's official web portal to all federal, state and local government web resources and services.